sensor_id;sensor_type;location;lat;lon;timestamp;pressure;altitude;pressure_sealevel;temperature;humidity
58785;BME280;44557;51.862;19.378;2023-03-23T00:01:56;98552.41;;;11.66;77.98
58785;BME280;44557;51.862;19.378;2023-03-23T00:03:58;98551.40;;;11.72;77.41
58785;BME280;44557;51.862;19.378;2023-03-23T00:05:59;98547.58;;;11.64;77.92
58785;BME280;44557;51.862;19.378;2023-03-23T00:08:08;98547.94;;;11.84;77.35
58785;BME280;44557;51.862;19.378;2023-03-23T00:10:14;98545.48;;;11.88;76.78
58785;BME280;44557;51.862;19.378;2023-03-23T00:12:16;98550.99;;;11.87;76.94
58785;BME280;44557;51.862;19.378;2023-03-23T00:14:18;98550.73;;;11.81;77.20
58785;BME280;44557;51.862;19.378;2023-03-23T00:16:25;98548.89;;;11.85;77.01
58785;BME280;44557;51.862;19.378;2023-03-23T00:18:33;98553.55;;;11.80;77.11
58785;BME280;44557;51.862;19.378;2023-03-23T00:20:36;98554.09;;;11.74;77.55
58785;BME280;44557;51.862;19.378;2023-03-23T00:22:41;98555.30;;;11.75;77.17
58785;BME280;44557;51.862;19.378;2023-03-23T00:24:43;98556.10;;;11.60;77.92
58785;BME280;44557;51.862;19.378;2023-03-23T00:26:47;98554.72;;;11.84;77.19
58785;BME280;44557;51.862;19.378;2023-03-23T00:28:49;98549.33;;;11.88;76.93
58785;BME280;44557;51.862;19.378;2023-03-23T00:31:04;98547.38;;;11.78;77.10
58785;BME280;44557;51.862;19.378;2023-03-23T00:33:08;98547.25;;;11.92;76.64
58785;BME280;44557;51.862;19.378;2023-03-23T00:35:09;98546.68;;;11.90;76.48
58785;BME280;44557;51.862;19.378;2023-03-23T00:37:11;98546.81;;;11.71;77.17
58785;BME280;44557;51.862;19.378;2023-03-23T00:39:13;98548.73;;;11.73;77.32
58785;BME280;44557;51.862;19.378;2023-03-23T00:41:17;98544.67;;;11.82;76.73
58785;BME280;44557;51.862;19.378;2023-03-23T00:43:19;98544.27;;;11.81;76.81
58785;BME280;44557;51.862;19.378;2023-03-23T00:45:21;98545.80;;;11.77;77.15
58785;BME280;44557;51.862;19.378;2023-03-23T00:47:25;98541.34;;;11.86;76.63
58785;BME280;44557;51.862;19.378;2023-03-23T00:49:27;98539.56;;;11.89;76.56
58785;BME280;44557;51.862;19.378;2023-03-23T00:51:29;98544.63;;;11.84;76.84
58785;BME280;44557;51.862;19.378;2023-03-23T00:53:31;98541.89;;;11.85;76.91
58785;BME280;44557;51.862;19.378;2023-03-23T00:55:33;98540.77;;;11.79;76.78
58785;BME280;44557;51.862;19.378;2023-03-23T00:57:35;98538.29;;;11.65;77.52
58785;BME280;44557;51.862;19.378;2023-03-23T00:59:36;98536.88;;;11.77;77.44
58785;BME280;44557;51.862;19.378;2023-03-23T01:01:38;98534.60;;;11.66;77.50
58785;BME280;44557;51.862;19.378;2023-03-23T01:03:40;98529.15;;;11.61;77.70
58785;BME280;44557;51.862;19.378;2023-03-23T01:05:41;98529.62;;;11.61;77.92
58785;BME280;44557;51.862;19.378;2023-03-23T01:07:43;98531.64;;;11.59;78.18
58785;BME280;44557;51.862;19.378;2023-03-23T01:09:45;98525.58;;;11.48;78.37
58785;BME280;44557;51.862;19.378;2023-03-23T01:11:49;98523.05;;;11.48;78.43
58785;BME280;44557;51.862;19.378;2023-03-23T01:13:52;98519.63;;;11.39;78.74
58785;BME280;44557;51.862;19.378;2023-03-23T01:15:53;98520.36;;;11.41;78.79
58785;BME280;44557;51.862;19.378;2023-03-23T01:17:56;98521.41;;;11.59;78.09
58785;BME280;44557;51.862;19.378;2023-03-23T01:19:58;98525.08;;;11.36;78.62
58785;BME280;44557;51.862;19.378;2023-03-23T01:22:00;98519.94;;;11.50;78.33
58785;BME280;44557;51.862;19.378;2023-03-23T01:24:01;98516.73;;;11.47;78.34
58785;BME280;44557;51.862;19.378;2023-03-23T01:26:08;98517.83;;;11.25;79.42
58785;BME280;44557;51.862;19.378;2023-03-23T01:28:11;98518.70;;;11.30;79.11
58785;BME280;44557;51.862;19.378;2023-03-23T01:30:13;98522.44;;;11.32;78.98
58785;BME280;44557;51.862;19.378;2023-03-23T01:32:18;98517.69;;;11.37;78.85
58785;BME280;44557;51.862;19.378;2023-03-23T01:34:20;98519.28;;;11.43;78.67
58785;BME280;44557;51.862;19.378;2023-03-23T01:36:24;98520.63;;;11.27;79.15
58785;BME280;44557;51.862;19.378;2023-03-23T01:38:27;98524.92;;;11.26;79.16
58785;BME280;44557;51.862;19.378;2023-03-23T01:40:29;98523.80;;;11.18;79.39
58785;BME280;44557;51.862;19.378;2023-03-23T01:42:35;98522.26;;;11.27;79.14
58785;BME280;44557;51.862;19.378;2023-03-23T01:46:39;98524.61;;;11.04;79.98
58785;BME280;44557;51.862;19.378;2023-03-23T01:48:41;98521.50;;;10.98;80.47
58785;BME280;44557;51.862;19.378;2023-03-23T01:51:06;98520.39;;;11.07;80.27
58785;BME280;44557;51.862;19.378;2023-03-23T01:53:11;98516.66;;;10.95;80.64
58785;BME280;44557;51.862;19.378;2023-03-23T01:55:13;98517.71;;;10.82;81.21
58785;BME280;44557;51.862;19.378;2023-03-23T01:57:16;98516.56;;;10.89;81.11
58785;BME280;44557;51.862;19.378;2023-03-23T01:59:19;98519.40;;;11.09;80.16
58785;BME280;44557;51.862;19.378;2023-03-23T02:01:22;98520.73;;;10.99;80.46
58785;BME280;44557;51.862;19.378;2023-03-23T02:03:27;98518.77;;;11.04;80.41
58785;BME280;44557;51.862;19.378;2023-03-23T02:05:32;98519.83;;;11.05;80.32
58785;BME280;44557;51.862;19.378;2023-03-23T02:07:35;98517.93;;;10.82;81.16
58785;BME280;44557;51.862;19.378;2023-03-23T02:09:37;98513.23;;;10.88;81.17
58785;BME280;44557;51.862;19.378;2023-03-23T02:11:38;98509.61;;;10.65;81.95
58785;BME280;44557;51.862;19.378;2023-03-23T02:13:41;98509.66;;;10.82;81.51
58785;BME280;44557;51.862;19.378;2023-03-23T02:15:50;98509.65;;;10.81;81.31
58785;BME280;44557;51.862;19.378;2023-03-23T02:22:41;98516.91;;;10.63;82.02
58785;BME280;44557;51.862;19.378;2023-03-23T02:24:53;98520.15;;;10.55;82.74
58785;BME280;44557;51.862;19.378;2023-03-23T02:31:47;98509.98;;;10.76;81.67
58785;BME280;44557;51.862;19.378;2023-03-23T02:34:23;98511.48;;;10.68;81.73
58785;BME280;44557;51.862;19.378;2023-03-23T02:40:45;98519.98;;;10.64;82.02
58785;BME280;44557;51.862;19.378;2023-03-23T02:42:51;98516.75;;;10.64;82.05
58785;BME280;44557;51.862;19.378;2023-03-23T02:44:56;98519.60;;;10.60;82.19
58785;BME280;44557;51.862;19.378;2023-03-23T02:47:02;98522.95;;;10.50;82.44
58785;BME280;44557;51.862;19.378;2023-03-23T02:49:07;98523.11;;;10.63;81.98
58785;BME280;44557;51.862;19.378;2023-03-23T02:51:11;98518.52;;;10.62;82.04
58785;BME280;44557;51.862;19.378;2023-03-23T02:53:16;98520.27;;;10.62;81.92
58785;BME280;44557;51.862;19.378;2023-03-23T02:55:21;98518.06;;;10.58;81.95
58785;BME280;44557;51.862;19.378;2023-03-23T02:57:27;98520.13;;;10.59;82.12
58785;BME280;44557;51.862;19.378;2023-03-23T02:59:29;98517.27;;;10.57;82.10
58785;BME280;44557;51.862;19.378;2023-03-23T03:03:39;98513.23;;;10.65;81.76
58785;BME280;44557;51.862;19.378;2023-03-23T03:05:51;98510.69;;;10.68;81.43
58785;BME280;44557;51.862;19.378;2023-03-23T03:08:06;98513.25;;;10.48;82.32
58785;BME280;44557;51.862;19.378;2023-03-23T03:10:30;98508.11;;;10.42;82.58
58785;BME280;44557;51.862;19.378;2023-03-23T03:12:44;98503.15;;;10.38;82.80
58785;BME280;44557;51.862;19.378;2023-03-23T03:14:57;98506.55;;;10.25;83.24
58785;BME280;44557;51.862;19.378;2023-03-23T03:17:20;98500.06;;;10.36;82.92
58785;BME280;44557;51.862;19.378;2023-03-23T03:19:28;98499.58;;;10.23;83.24
58785;BME280;44557;51.862;19.378;2023-03-23T03:21:36;98496.02;;;10.30;83.34
58785;BME280;44557;51.862;19.378;2023-03-23T03:23:42;98497.35;;;10.13;83.76
58785;BME280;44557;51.862;19.378;2023-03-23T03:25:45;98499.36;;;10.12;83.97
58785;BME280;44557;51.862;19.378;2023-03-23T03:27:50;98495.36;;;10.05;84.22
58785;BME280;44557;51.862;19.378;2023-03-23T03:29:56;98491.39;;;10.27;83.43
58785;BME280;44557;51.862;19.378;2023-03-23T03:32:02;98490.59;;;10.26;83.18
58785;BME280;44557;51.862;19.378;2023-03-23T03:34:06;98488.51;;;10.23;83.22
58785;BME280;44557;51.862;19.378;2023-03-23T03:36:14;98486.73;;;10.18;83.42
58785;BME280;44557;51.862;19.378;2023-03-23T03:38:17;98489.45;;;10.08;84.03
58785;BME280;44557;51.862;19.378;2023-03-23T03:40:23;98497.00;;;10.32;83.00
58785;BME280;44557;51.862;19.378;2023-03-23T03:42:25;98501.14;;;10.35;82.77
58785;BME280;44557;51.862;19.378;2023-03-23T03:44:27;98503.02;;;10.07;83.70
58785;BME280;44557;51.862;19.378;2023-03-23T03:46:29;98502.69;;;10.18;83.52
58785;BME280;44557;51.862;19.378;2023-03-23T03:48:33;98503.14;;;10.20;83.21
58785;BME280;44557;51.862;19.378;2023-03-23T03:50:34;98506.24;;;10.15;83.50
58785;BME280;44557;51.862;19.378;2023-03-23T03:52:36;98504.36;;;10.43;82.39
58785;BME280;44557;51.862;19.378;2023-03-23T03:54:39;98504.02;;;10.33;82.60
58785;BME280;44557;51.862;19.378;2023-03-23T03:56:41;98500.74;;;10.07;83.68
58785;BME280;44557;51.862;19.378;2023-03-23T03:58:43;98492.03;;;10.19;83.42
58785;BME280;44557;51.862;19.378;2023-03-23T04:00:45;98488.76;;;10.51;81.93
58785;BME280;44557;51.862;19.378;2023-03-23T04:02:50;98490.86;;;10.46;82.18
58785;BME280;44557;51.862;19.378;2023-03-23T04:04:56;98485.54;;;10.42;82.14
58785;BME280;44557;51.862;19.378;2023-03-23T04:06:57;98487.29;;;10.48;81.79
58785;BME280;44557;51.862;19.378;2023-03-23T04:08:59;98487.64;;;10.41;82.05
58785;BME280;44557;51.862;19.378;2023-03-23T04:11:02;98489.37;;;10.24;82.81
58785;BME280;44557;51.862;19.378;2023-03-23T04:13:04;98484.72;;;10.19;83.05
58785;BME280;44557;51.862;19.378;2023-03-23T04:15:06;98480.74;;;10.29;82.83
58785;BME280;44557;51.862;19.378;2023-03-23T04:17:09;98479.98;;;10.27;82.64
58785;BME280;44557;51.862;19.378;2023-03-23T04:19:11;98483.80;;;10.16;83.40
58785;BME280;44557;51.862;19.378;2023-03-23T04:21:13;98487.98;;;10.43;82.19
58785;BME280;44557;51.862;19.378;2023-03-23T04:23:17;98490.10;;;10.43;82.13
58785;BME280;44557;51.862;19.378;2023-03-23T04:25:21;98488.19;;;10.32;82.40
58785;BME280;44557;51.862;19.378;2023-03-23T04:27:23;98488.09;;;10.15;83.04
58785;BME280;44557;51.862;19.378;2023-03-23T04:29:26;98472.28;;;10.22;82.92
58785;BME280;44557;51.862;19.378;2023-03-23T04:31:28;98460.14;;;10.30;82.45
58785;BME280;44557;51.862;19.378;2023-03-23T04:33:30;98461.31;;;10.20;82.69
58785;BME280;44557;51.862;19.378;2023-03-23T04:35:31;98465.71;;;10.34;82.29
58785;BME280;44557;51.862;19.378;2023-03-23T04:37:33;98465.80;;;10.29;82.09
58785;BME280;44557;51.862;19.378;2023-03-23T04:39:35;98464.88;;;10.26;82.32
58785;BME280;44557;51.862;19.378;2023-03-23T04:41:37;98466.14;;;10.22;82.62
58785;BME280;44557;51.862;19.378;2023-03-23T04:43:38;98463.46;;;10.21;82.53
58785;BME280;44557;51.862;19.378;2023-03-23T04:45:42;98459.89;;;10.04;83.21
58785;BME280;44557;51.862;19.378;2023-03-23T04:47:51;98461.06;;;10.12;82.81
58785;BME280;44557;51.862;19.378;2023-03-23T04:49:58;98458.52;;;10.14;82.97
58785;BME280;44557;51.862;19.378;2023-03-23T04:52:00;98457.81;;;10.11;82.75
58785;BME280;44557;51.862;19.378;2023-03-23T04:54:01;98456.35;;;9.92;83.65
58785;BME280;44557;51.862;19.378;2023-03-23T04:56:03;98454.66;;;10.22;82.68
58785;BME280;44557;51.862;19.378;2023-03-23T04:58:06;98446.33;;;10.31;81.89
58785;BME280;44557;51.862;19.378;2023-03-23T05:00:08;98450.13;;;10.15;82.57
58785;BME280;44557;51.862;19.378;2023-03-23T05:02:10;98443.35;;;10.23;82.23
58785;BME280;44557;51.862;19.378;2023-03-23T05:04:12;98452.17;;;10.08;82.85
58785;BME280;44557;51.862;19.378;2023-03-23T05:06:17;98454.23;;;10.16;82.48
58785;BME280;44557;51.862;19.378;2023-03-23T05:08:20;98453.20;;;10.20;82.38
58785;BME280;44557;51.862;19.378;2023-03-23T05:10:23;98452.99;;;10.21;82.38
58785;BME280;44557;51.862;19.378;2023-03-23T05:12:24;98449.93;;;10.30;81.96
58785;BME280;44557;51.862;19.378;2023-03-23T05:14:26;98449.61;;;10.25;81.95
58785;BME280;44557;51.862;19.378;2023-03-23T05:16:28;98448.47;;;10.37;81.55
58785;BME280;44557;51.862;19.378;2023-03-23T05:18:30;98448.34;;;10.44;81.36
58785;BME280;44557;51.862;19.378;2023-03-23T05:20:33;98446.83;;;10.24;81.98
58785;BME280;44557;51.862;19.378;2023-03-23T05:22:35;98446.37;;;10.34;81.67
58785;BME280;44557;51.862;19.378;2023-03-23T05:24:38;98445.77;;;10.22;82.20
58785;BME280;44557;51.862;19.378;2023-03-23T05:26:39;98449.95;;;10.22;82.21
58785;BME280;44557;51.862;19.378;2023-03-23T05:28:41;98451.16;;;10.12;82.80
58785;BME280;44557;51.862;19.378;2023-03-23T05:30:43;98449.86;;;10.13;82.79
58785;BME280;44557;51.862;19.378;2023-03-23T05:32:45;98450.66;;;10.19;82.65
58785;BME280;44557;51.862;19.378;2023-03-23T05:34:51;98449.23;;;10.26;82.15
58785;BME280;44557;51.862;19.378;2023-03-23T05:36:55;98453.23;;;10.09;82.97
58785;BME280;44557;51.862;19.378;2023-03-23T05:38:56;98453.30;;;10.16;82.76
58785;BME280;44557;51.862;19.378;2023-03-23T05:41:01;98454.25;;;10.21;82.69
58785;BME280;44557;51.862;19.378;2023-03-23T05:43:02;98455.95;;;10.24;82.66
58785;BME280;44557;51.862;19.378;2023-03-23T05:45:05;98459.21;;;10.22;82.71
58785;BME280;44557;51.862;19.378;2023-03-23T05:47:07;98455.80;;;10.33;82.14
58785;BME280;44557;51.862;19.378;2023-03-23T05:49:09;98461.36;;;10.32;82.24
58785;BME280;44557;51.862;19.378;2023-03-23T05:51:10;98460.59;;;10.24;82.64
58785;BME280;44557;51.862;19.378;2023-03-23T05:53:13;98461.31;;;10.16;82.95
58785;BME280;44557;51.862;19.378;2023-03-23T05:55:15;98459.73;;;10.24;82.65
58785;BME280;44557;51.862;19.378;2023-03-23T05:57:17;98454.70;;;10.29;82.36
58785;BME280;44557;51.862;19.378;2023-03-23T05:59:19;98456.23;;;10.40;81.88
58785;BME280;44557;51.862;19.378;2023-03-23T06:01:21;98459.52;;;10.39;81.81
58785;BME280;44557;51.862;19.378;2023-03-23T06:03:22;98463.69;;;10.39;81.80
58785;BME280;44557;51.862;19.378;2023-03-23T06:05:24;98465.52;;;10.41;81.99
58785;BME280;44557;51.862;19.378;2023-03-23T06:07:26;98461.84;;;10.46;81.62
58785;BME280;44557;51.862;19.378;2023-03-23T06:09:28;98461.27;;;10.54;81.34
58785;BME280;44557;51.862;19.378;2023-03-23T06:11:30;98459.20;;;10.48;81.70
58785;BME280;44557;51.862;19.378;2023-03-23T06:13:31;98458.75;;;10.54;81.38
58785;BME280;44557;51.862;19.378;2023-03-23T06:15:33;98459.84;;;10.49;81.92
58785;BME280;44557;51.862;19.378;2023-03-23T06:17:34;98457.30;;;10.39;82.21
58785;BME280;44557;51.862;19.378;2023-03-23T06:19:37;98453.45;;;10.48;81.91
58785;BME280;44557;51.862;19.378;2023-03-23T06:21:38;98453.22;;;10.71;81.09
58785;BME280;44557;51.862;19.378;2023-03-23T06:23:40;98453.11;;;10.84;80.34
58785;BME280;44557;51.862;19.378;2023-03-23T06:25:42;98457.02;;;10.72;80.73
58785;BME280;44557;51.862;19.378;2023-03-23T06:27:43;98455.97;;;10.71;81.06
58785;BME280;44557;51.862;19.378;2023-03-23T06:29:45;98461.19;;;10.73;80.74
58785;BME280;44557;51.862;19.378;2023-03-23T06:31:52;98461.08;;;10.79;80.60
58785;BME280;44557;51.862;19.378;2023-03-23T06:33:55;98459.09;;;10.94;80.17
58785;BME280;44557;51.862;19.378;2023-03-23T06:35:57;98461.94;;;10.95;80.23
58785;BME280;44557;51.862;19.378;2023-03-23T06:38:00;98466.45;;;10.96;80.18
58785;BME280;44557;51.862;19.378;2023-03-23T06:40:03;98462.14;;;10.98;80.29
58785;BME280;44557;51.862;19.378;2023-03-23T06:42:11;98462.61;;;10.98;80.23
58785;BME280;44557;51.862;19.378;2023-03-23T06:44:13;98461.45;;;10.99;80.22
58785;BME280;44557;51.862;19.378;2023-03-23T06:46:14;98459.82;;;10.95;80.61
58785;BME280;44557;51.862;19.378;2023-03-23T06:48:16;98457.36;;;10.94;80.22
58785;BME280;44557;51.862;19.378;2023-03-23T06:50:18;98459.05;;;10.96;80.36
58785;BME280;44557;51.862;19.378;2023-03-23T06:52:20;98456.79;;;10.98;80.54
58785;BME280;44557;51.862;19.378;2023-03-23T06:54:22;98455.23;;;10.99;80.40
58785;BME280;44557;51.862;19.378;2023-03-23T06:56:24;98453.75;;;11.00;80.36
58785;BME280;44557;51.862;19.378;2023-03-23T06:58:25;98450.16;;;11.19;79.78
58785;BME280;44557;51.862;19.378;2023-03-23T07:00:27;98445.42;;;11.07;80.07
58785;BME280;44557;51.862;19.378;2023-03-23T07:02:28;98444.55;;;11.12;79.71
58785;BME280;44557;51.862;19.378;2023-03-23T07:04:31;98443.86;;;11.02;80.32
58785;BME280;44557;51.862;19.378;2023-03-23T07:06:33;98440.17;;;11.21;79.72
58785;BME280;44557;51.862;19.378;2023-03-23T07:08:35;98445.30;;;11.33;79.29
58785;BME280;44557;51.862;19.378;2023-03-23T07:10:38;98448.39;;;11.33;79.03
58785;BME280;44557;51.862;19.378;2023-03-23T07:12:40;98445.04;;;11.47;78.38
58785;BME280;44557;51.862;19.378;2023-03-23T07:14:43;98446.48;;;11.61;77.92
58785;BME280;44557;51.862;19.378;2023-03-23T07:16:44;98447.42;;;12.01;76.75
58785;BME280;44557;51.862;19.378;2023-03-23T07:18:46;98442.43;;;12.20;75.31
58785;BME280;44557;51.862;19.378;2023-03-23T07:20:52;98445.22;;;12.21;75.32
58785;BME280;44557;51.862;19.378;2023-03-23T07:22:54;98442.58;;;12.26;75.36
58785;BME280;44557;51.862;19.378;2023-03-23T07:24:55;98440.41;;;12.39;74.77
58785;BME280;44557;51.862;19.378;2023-03-23T07:26:57;98439.86;;;12.47;74.07
58785;BME280;44557;51.862;19.378;2023-03-23T07:28:59;98444.56;;;12.53;73.62
58785;BME280;44557;51.862;19.378;2023-03-23T07:31:01;98444.61;;;12.77;73.24
58785;BME280;44557;51.862;19.378;2023-03-23T07:33:07;98441.85;;;12.67;73.07
58785;BME280;44557;51.862;19.378;2023-03-23T07:35:09;98439.02;;;12.78;72.94
58785;BME280;44557;51.862;19.378;2023-03-23T07:37:11;98439.27;;;12.92;72.07
58785;BME280;44557;51.862;19.378;2023-03-23T07:39:13;98439.39;;;13.09;71.38
58785;BME280;44557;51.862;19.378;2023-03-23T07:41:15;98436.52;;;13.25;70.74
58785;BME280;44557;51.862;19.378;2023-03-23T07:43:16;98432.27;;;13.29;70.52
58785;BME280;44557;51.862;19.378;2023-03-23T07:45:18;98433.08;;;13.19;70.75
58785;BME280;44557;51.862;19.378;2023-03-23T07:47:20;98425.16;;;13.29;70.78
58785;BME280;44557;51.862;19.378;2023-03-23T07:49:21;98425.70;;;13.25;70.36
58785;BME280;44557;51.862;19.378;2023-03-23T07:51:23;98423.80;;;13.25;70.43
58785;BME280;44557;51.862;19.378;2023-03-23T07:53:26;98423.38;;;13.35;70.16
58785;BME280;44557;51.862;19.378;2023-03-23T07:55:27;98416.58;;;13.34;70.05
58785;BME280;44557;51.862;19.378;2023-03-23T07:57:30;98416.70;;;13.28;69.92
58785;BME280;44557;51.862;19.378;2023-03-23T07:59:33;98417.42;;;13.45;69.40
58785;BME280;44557;51.862;19.378;2023-03-23T08:01:35;98416.61;;;13.58;69.13
58785;BME280;44557;51.862;19.378;2023-03-23T08:03:37;98416.73;;;13.74;68.33
58785;BME280;44557;51.862;19.378;2023-03-23T08:05:38;98419.02;;;13.89;67.82
58785;BME280;44557;51.862;19.378;2023-03-23T08:07:41;98416.05;;;13.99;67.62
58785;BME280;44557;51.862;19.378;2023-03-23T08:09:43;98417.27;;;14.18;65.98
58785;BME280;44557;51.862;19.378;2023-03-23T08:11:44;98419.20;;;14.30;65.17
58785;BME280;44557;51.862;19.378;2023-03-23T08:13:46;98416.58;;;14.27;64.65
58785;BME280;44557;51.862;19.378;2023-03-23T08:15:48;98416.56;;;14.23;64.76
58785;BME280;44557;51.862;19.378;2023-03-23T08:17:51;98418.91;;;14.38;64.61
58785;BME280;44557;51.862;19.378;2023-03-23T08:19:53;98415.04;;;14.50;64.05
58785;BME280;44557;51.862;19.378;2023-03-23T08:21:56;98412.11;;;14.48;63.82
58785;BME280;44557;51.862;19.378;2023-03-23T08:23:58;98412.02;;;14.41;63.38
58785;BME280;44557;51.862;19.378;2023-03-23T08:26:00;98413.06;;;14.41;63.19
58785;BME280;44557;51.862;19.378;2023-03-23T08:28:02;98409.80;;;14.41;62.72
58785;BME280;44557;51.862;19.378;2023-03-23T08:30:04;98409.09;;;14.51;62.08
58785;BME280;44557;51.862;19.378;2023-03-23T08:32:08;98407.44;;;14.56;61.12
58785;BME280;44557;51.862;19.378;2023-03-23T08:34:10;98404.59;;;14.57;60.28
58785;BME280;44557;51.862;19.378;2023-03-23T08:36:11;98404.03;;;14.68;59.66
58785;BME280;44557;51.862;19.378;2023-03-23T08:38:13;98401.95;;;14.86;60.14
58785;BME280;44557;51.862;19.378;2023-03-23T08:40:15;98394.70;;;15.18;59.19
58785;BME280;44557;51.862;19.378;2023-03-23T08:42:17;98395.65;;;15.82;57.01
58785;BME280;44557;51.862;19.378;2023-03-23T08:44:19;98390.79;;;15.89;55.91
58785;BME280;44557;51.862;19.378;2023-03-23T08:46:21;98390.63;;;16.71;53.42
58785;BME280;44557;51.862;19.378;2023-03-23T08:48:22;98389.92;;;17.20;51.59
58785;BME280;44557;51.862;19.378;2023-03-23T08:50:26;98393.05;;;17.26;51.57
58785;BME280;44557;51.862;19.378;2023-03-23T08:52:28;98394.48;;;17.55;50.30
58785;BME280;44557;51.862;19.378;2023-03-23T08:54:30;98390.59;;;17.32;50.13
58785;BME280;44557;51.862;19.378;2023-03-23T08:56:32;98386.70;;;16.92;50.93
58785;BME280;44557;51.862;19.378;2023-03-23T08:58:35;98381.57;;;16.81;51.04
58785;BME280;44557;51.862;19.378;2023-03-23T09:00:36;98380.73;;;17.01;50.34
58785;BME280;44557;51.862;19.378;2023-03-23T09:02:38;98379.69;;;17.41;49.67
58785;BME280;44557;51.862;19.378;2023-03-23T09:04:40;98379.88;;;17.30;49.36
58785;BME280;44557;51.862;19.378;2023-03-23T09:06:45;98371.81;;;17.41;49.33
58785;BME280;44557;51.862;19.378;2023-03-23T09:08:47;98371.52;;;17.65;48.94
58785;BME280;44557;51.862;19.378;2023-03-23T09:10:48;98371.88;;;17.82;49.01
58785;BME280;44557;51.862;19.378;2023-03-23T09:12:52;98374.79;;;17.89;48.46
58785;BME280;44557;51.862;19.378;2023-03-23T09:14:55;98373.74;;;18.08;48.40
58785;BME280;44557;51.862;19.378;2023-03-23T09:16:58;98373.89;;;17.91;48.40
58785;BME280;44557;51.862;19.378;2023-03-23T09:19:00;98372.50;;;18.26;48.15
58785;BME280;44557;51.862;19.378;2023-03-23T09:21:03;98375.17;;;18.65;46.79
58785;BME280;44557;51.862;19.378;2023-03-23T09:23:05;98369.14;;;18.27;47.16
58785;BME280;44557;51.862;19.378;2023-03-23T09:25:08;98362.53;;;18.17;46.81
58785;BME280;44557;51.862;19.378;2023-03-23T09:27:10;98363.42;;;18.00;47.12
58785;BME280;44557;51.862;19.378;2023-03-23T09:29:12;98365.11;;;17.87;47.24
58785;BME280;44557;51.862;19.378;2023-03-23T09:31:14;98366.80;;;17.86;47.66
58785;BME280;44557;51.862;19.378;2023-03-23T09:33:15;98360.16;;;18.21;46.75
58785;BME280;44557;51.862;19.378;2023-03-23T09:35:17;98366.48;;;18.19;46.59
58785;BME280;44557;51.862;19.378;2023-03-23T09:37:18;98357.79;;;18.09;46.14
58785;BME280;44557;51.862;19.378;2023-03-23T09:39:20;98367.12;;;18.45;46.14
58785;BME280;44557;51.862;19.378;2023-03-23T09:43:57;98355.75;;;18.95;45.68
58785;BME280;44557;51.862;19.378;2023-03-23T09:53:38;98353.02;;;18.30;45.42
58785;BME280;44557;51.862;19.378;2023-03-23T09:55:41;98347.73;;;18.26;45.63
58785;BME280;44557;51.862;19.378;2023-03-23T09:57:59;98342.50;;;18.69;45.17
58785;BME280;44557;51.862;19.378;2023-03-23T10:00:08;98349.58;;;18.46;45.31
58785;BME280;44557;51.862;19.378;2023-03-23T10:02:38;98349.48;;;18.10;45.91
58785;BME280;44557;51.862;19.378;2023-03-23T10:04:50;98346.06;;;17.88;46.31
58785;BME280;44557;51.862;19.378;2023-03-23T10:06:58;98350.94;;;18.09;46.57
58785;BME280;44557;51.862;19.378;2023-03-23T10:09:03;98349.64;;;18.10;46.78
58785;BME280;44557;51.862;19.378;2023-03-23T10:15:39;98348.20;;;18.21;47.01
58785;BME280;44557;51.862;19.378;2023-03-23T10:19:48;98339.79;;;18.45;45.41
58785;BME280;44557;51.862;19.378;2023-03-23T10:21:56;98341.02;;;19.07;44.20
58785;BME280;44557;51.862;19.378;2023-03-23T10:24:03;98342.23;;;19.47;43.64
58785;BME280;44557;51.862;19.378;2023-03-23T10:26:25;98335.34;;;19.76;42.69
58785;BME280;44557;51.862;19.378;2023-03-23T10:28:44;98334.02;;;19.99;41.83
58785;BME280;44557;51.862;19.378;2023-03-23T10:30:48;98328.27;;;20.40;41.17
58785;BME280;44557;51.862;19.378;2023-03-23T10:32:56;98327.17;;;20.71;40.23
58785;BME280;44557;51.862;19.378;2023-03-23T10:35:03;98327.54;;;20.03;41.55
58785;BME280;44557;51.862;19.378;2023-03-23T10:37:13;98328.14;;;19.69;41.97
58785;BME280;44557;51.862;19.378;2023-03-23T10:39:23;98322.36;;;19.35;42.44
58785;BME280;44557;51.862;19.378;2023-03-23T10:41:25;98328.52;;;19.02;43.11
58785;BME280;44557;51.862;19.378;2023-03-23T10:43:26;98328.75;;;19.02;43.69
58785;BME280;44557;51.862;19.378;2023-03-23T10:45:30;98326.79;;;19.13;43.55
58785;BME280;44557;51.862;19.378;2023-03-23T10:47:36;98320.86;;;19.26;43.43
58785;BME280;44557;51.862;19.378;2023-03-23T10:49:46;98323.64;;;19.14;43.69
58785;BME280;44557;51.862;19.378;2023-03-23T10:51:59;98318.23;;;19.15;44.28
58785;BME280;44557;51.862;19.378;2023-03-23T10:54:04;98316.27;;;19.49;43.74
58785;BME280;44557;51.862;19.378;2023-03-23T10:56:21;98316.95;;;19.59;43.73
58785;BME280;44557;51.862;19.378;2023-03-23T10:58:32;98314.20;;;19.16;43.84
58785;BME280;44557;51.862;19.378;2023-03-23T11:00:41;98317.75;;;18.89;43.99
58785;BME280;44557;51.862;19.378;2023-03-23T11:02:46;98309.36;;;19.11;44.09
58785;BME280;44557;51.862;19.378;2023-03-23T11:05:21;98308.70;;;19.36;43.86
58785;BME280;44557;51.862;19.378;2023-03-23T11:07:28;98299.34;;;19.61;42.90
58785;BME280;44557;51.862;19.378;2023-03-23T11:09:39;98296.34;;;19.48;42.80
58785;BME280;44557;51.862;19.378;2023-03-23T11:11:48;98301.70;;;19.27;43.62
58785;BME280;44557;51.862;19.378;2023-03-23T11:13:57;98304.52;;;19.35;44.08
58785;BME280;44557;51.862;19.378;2023-03-23T11:15:59;98312.66;;;19.22;44.92
58785;BME280;44557;51.862;19.378;2023-03-23T11:20:20;98326.35;;;18.76;44.92
58785;BME280;44557;51.862;19.378;2023-03-23T11:22:29;98321.22;;;18.61;45.28
58785;BME280;44557;51.862;19.378;2023-03-23T11:24:46;98307.44;;;18.51;45.66
58785;BME280;44557;51.862;19.378;2023-03-23T11:26:49;98295.79;;;18.65;45.76